createdAt,value
2022-10-25T00:01:20.069Z,6.00
2022-10-25T00:06:12.686Z,4.70
2022-10-25T00:11:05.935Z,8.93
2022-10-25T00:15:56.034Z,8.37
2022-10-25T00:20:46.986Z,6.43
2022-10-25T00:25:39.806Z,7.88
2022-10-25T00:30:35.177Z,9.23
2022-10-25T00:35:33.303Z,8.33
2022-10-25T00:40:24.220Z,8.43
2022-10-25T00:45:23.543Z,7.30
2022-10-25T00:50:30.523Z,9.40
2022-10-25T00:55:23.583Z,9.17
2022-10-25T01:00:15.408Z,11.02
2022-10-25T01:05:06.383Z,7.93
2022-10-25T01:10:00.402Z,10.07
2022-10-25T01:14:54.296Z,12.68
2022-10-25T01:20:10.573Z,9.07
2022-10-25T01:25:30.290Z,8.55
2022-10-25T01:30:26.177Z,9.65
2022-10-25T01:35:29.871Z,9.15
2022-10-25T01:40:27.745Z,12.50
2022-10-25T01:45:24.433Z,10.07
2022-10-25T01:50:18.761Z,10.30
2022-10-25T01:55:16.078Z,10.43
2022-10-25T02:00:12.448Z,8.60
2022-10-25T02:05:15.691Z,10.00
2022-10-25T02:10:15.589Z,10.52
2022-10-25T02:15:12.665Z,9.53
2022-10-25T02:20:05.818Z,8.88
2022-10-25T02:25:00.923Z,12.20
2022-10-25T02:29:56.953Z,7.60
2022-10-25T02:34:51.488Z,9.93
2022-10-25T02:39:42.452Z,8.65
2022-10-25T02:44:33.439Z,11.43
2022-10-25T02:49:30.578Z,9.18
2022-10-25T02:54:21.476Z,11.32
2022-10-25T02:59:15.269Z,10.55
2022-10-25T03:04:06.174Z,8.80
2022-10-25T03:08:59.470Z,10.85
2022-10-25T03:13:49.953Z,7.97
2022-10-25T03:18:43.170Z,8.07
2022-10-25T03:23:34.066Z,10.70
2022-10-25T03:28:28.117Z,9.40
2022-10-25T03:33:21.748Z,10.18
2022-10-25T03:38:12.793Z,9.50
2022-10-25T03:43:03.040Z,9.38
2022-10-25T03:47:55.973Z,9.98
2022-10-25T03:52:46.516Z,6.53
2022-10-25T03:57:37.479Z,8.45
2022-10-25T04:02:28.194Z,7.68
2022-10-25T04:07:22.148Z,7.65
2022-10-25T04:12:16.545Z,5.90
2022-10-25T04:17:09.874Z,6.80
2022-10-25T04:22:02.399Z,7.47
2022-10-25T04:26:57.155Z,7.40
2022-10-25T04:31:47.390Z,5.33
2022-10-25T04:36:39.342Z,6.43
2022-10-25T04:41:29.701Z,4.50
2022-10-25T04:46:26.199Z,7.20
2022-10-25T04:51:17.397Z,6.57
2022-10-25T04:56:09.853Z,7.15
2022-10-25T05:01:04.838Z,5.20
2022-10-25T05:05:57.933Z,4.87
2022-10-25T05:10:53.388Z,4.65
2022-10-25T05:15:43.290Z,7.40
2022-10-25T05:20:33.735Z,7.22
2022-10-25T05:25:29.245Z,5.68
2022-10-25T05:30:22.261Z,7.65
2022-10-25T05:35:13.081Z,7.55
2022-10-25T05:40:04.551Z,6.15
2022-10-25T05:44:57.796Z,5.82
2022-10-25T05:49:48.606Z,9.35
2022-10-25T05:54:38.426Z,8.52
2022-10-25T05:59:28.185Z,6.15
2022-10-25T06:04:20.736Z,7.03
2022-10-25T06:09:11.523Z,7.40
2022-10-25T06:14:01.381Z,7.60
2022-10-25T06:18:52.552Z,5.70
2022-10-25T06:23:46.508Z,9.65
2022-10-25T06:28:47.303Z,7.10
2022-10-25T06:33:37.992Z,9.50
2022-10-25T06:38:28.464Z,8.63
2022-10-25T06:43:20.664Z,10.50
2022-10-25T06:48:11.208Z,13.05
2022-10-25T06:53:02.987Z,13.97
2022-10-25T06:57:53.802Z,10.47
2022-10-25T07:02:47.189Z,8.23
2022-10-25T07:07:37.561Z,7.45
2022-10-25T07:12:28.117Z,6.70
2022-10-25T07:17:18.863Z,7.32
2022-10-25T07:22:12.279Z,8.48
2022-10-25T07:27:02.652Z,8.30
2022-10-25T07:31:53.016Z,8.07
2022-10-25T07:36:43.526Z,7.63
2022-10-25T07:41:36.451Z,9.35
2022-10-25T07:46:27.820Z,8.30
2022-10-25T07:51:20.611Z,9.27
2022-10-25T07:56:17.610Z,9.23
2022-10-25T08:01:14.282Z,7.87
2022-10-25T08:06:08.311Z,11.55
2022-10-25T08:10:59.724Z,10.93
2022-10-25T08:15:53.834Z,8.80
2022-10-25T08:21:03.840Z,8.20
2022-10-25T08:25:55.200Z,8.63
2022-10-25T08:30:49.106Z,6.25
2022-10-25T08:35:39.929Z,8.82
2022-10-25T08:40:43.338Z,7.50
2022-10-25T08:45:40.399Z,8.13
2022-10-25T08:50:41.261Z,7.40
2022-10-25T08:55:41.731Z,9.55
2022-10-25T09:00:42.833Z,7.30
2022-10-25T09:05:41.644Z,12.32
2022-10-25T09:10:49.021Z,11.38
2022-10-25T09:15:52.428Z,14.20
2022-10-25T09:20:51.418Z,12.40
2022-10-25T09:25:55.648Z,9.05
2022-10-25T09:30:47.603Z,10.97
2022-10-25T09:35:46.378Z,12.33
2022-10-25T09:40:49.500Z,11.00
2022-10-25T09:45:47.356Z,8.55
2022-10-25T09:50:47.559Z,7.60
2022-10-25T09:55:44.795Z,7.22
2022-10-25T10:00:43.012Z,6.27
2022-10-25T10:05:35.347Z,7.68
2022-10-25T10:10:34.242Z,7.28
2022-10-25T10:15:29.846Z,5.18
2022-10-25T10:20:26.236Z,6.80
2022-10-25T10:25:21.452Z,7.15
2022-10-25T10:30:22.446Z,7.55
2022-10-25T10:35:34.196Z,10.43
2022-10-25T10:40:27.749Z,6.30
2022-10-25T10:45:21.731Z,7.10
2022-10-25T10:50:28.942Z,8.52
2022-10-25T10:55:30.452Z,10.32
2022-10-25T11:00:26.693Z,11.97
2022-10-25T11:05:27.576Z,8.15
2022-10-25T11:10:32.984Z,10.48
2022-10-25T11:15:23.619Z,8.73
2022-10-25T11:20:30.550Z,8.35
2022-10-25T11:25:41.377Z,5.18
2022-10-25T11:30:40.140Z,9.32
2022-10-25T11:35:54.356Z,7.32
2022-10-25T11:40:57.321Z,8.45
2022-10-25T11:45:49.947Z,9.18
2022-10-25T11:50:51.919Z,6.43
2022-10-25T11:55:51.645Z,6.20
2022-10-25T12:00:53.259Z,5.35
2022-10-25T12:05:53.728Z,8.18
2022-10-25T12:10:53.137Z,6.90
2022-10-25T12:15:46.789Z,6.97
2022-10-25T12:20:39.993Z,5.88
2022-10-25T12:25:34.964Z,4.93
2022-10-25T12:30:30.472Z,4.00
2022-10-25T12:35:25.491Z,4.00
2022-10-25T12:40:19.568Z,5.63
2022-10-25T12:45:35.868Z,3.87
2022-10-25T12:50:48.311Z,3.85
2022-10-25T12:55:52.832Z,5.18
2022-10-25T13:01:03.035Z,4.50
2022-10-25T13:06:27.773Z,6.28
2022-10-25T13:11:18.244Z,5.43
2022-10-25T13:16:13.261Z,3.40
2022-10-25T13:21:06.558Z,3.67
2022-10-25T13:26:10.819Z,2.80
2022-10-25T13:31:30.932Z,4.35
2022-10-25T13:36:51.738Z,3.90
2022-10-25T13:41:47.479Z,4.38
2022-10-25T13:46:41.562Z,2.90
2022-10-25T13:51:36.142Z,4.85
2022-10-25T13:56:39.514Z,4.37
2022-10-25T14:01:55.954Z,2.90
2022-10-25T14:06:49.543Z,4.07
2022-10-25T14:11:47.224Z,4.30
2022-10-25T14:16:47.422Z,4.45
2022-10-25T14:21:38.525Z,3.15
2022-10-25T14:26:33.430Z,2.70
2022-10-25T14:31:25.317Z,3.15
2022-10-25T14:36:29.454Z,2.15
2022-10-25T14:41:25.699Z,3.35
2022-10-25T14:46:23.270Z,2.92
2022-10-25T14:51:20.193Z,2.65
2022-10-25T14:56:11.433Z,3.20
2022-10-25T15:01:09.178Z,3.10
2022-10-25T15:06:03.719Z,3.30
2022-10-25T15:10:56.604Z,1.65
2022-10-25T15:15:51.640Z,4.65
2022-10-25T15:20:42.586Z,2.78
2022-10-25T15:25:43.931Z,3.08
2022-10-25T15:30:45.828Z,2.50
2022-10-25T15:35:49.345Z,3.40
2022-10-25T15:40:41.711Z,3.30
2022-10-25T15:45:32.402Z,2.20
2022-10-25T15:50:24.214Z,2.55
2022-10-25T16:00:31.358Z,2.17
2022-10-25T16:05:24.112Z,5.13
2022-10-25T16:10:14.493Z,2.50
2022-10-25T16:15:16.844Z,3.33
2022-10-25T16:20:23.485Z,4.40
2022-10-25T16:25:15.661Z,2.83
2022-10-25T16:30:06.329Z,3.50
2022-10-25T16:34:56.977Z,4.13
2022-10-25T16:39:50.236Z,3.17
2022-10-25T16:44:40.580Z,2.97
2022-10-25T16:49:32.812Z,3.13
2022-10-25T16:54:24.359Z,2.90
2022-10-25T16:59:17.813Z,2.90
2022-10-25T17:04:08.883Z,3.22
2022-10-25T17:08:59.482Z,3.17
2022-10-25T17:13:49.958Z,3.43
2022-10-25T17:18:43.487Z,2.67
2022-10-25T17:23:34.319Z,3.50
2022-10-25T17:28:24.738Z,4.57
2022-10-25T17:33:14.996Z,2.23
2022-10-25T17:38:10.277Z,2.60
2022-10-25T17:43:00.468Z,4.00
2022-10-25T17:47:51.189Z,4.32
2022-10-25T17:52:42.508Z,5.68
2022-10-25T17:57:37.406Z,2.13
2022-10-25T18:02:27.403Z,3.03
2022-10-25T18:07:17.606Z,4.27
2022-10-25T18:12:10.159Z,3.33
2022-10-25T18:17:03.104Z,2.87
2022-10-25T18:21:52.940Z,2.33
2022-10-25T18:26:43.139Z,3.33
2022-10-25T18:31:33.545Z,3.20
2022-10-25T18:36:27.494Z,2.85
2022-10-25T18:41:19.648Z,4.60
2022-10-25T18:46:09.765Z,5.07
2022-10-25T18:51:04.913Z,3.92
2022-10-25T18:55:57.212Z,2.50
2022-10-25T19:00:47.232Z,3.33
2022-10-25T19:05:40.019Z,6.07
2022-10-25T19:10:31.669Z,4.00
2022-10-25T19:15:24.313Z,4.90
2022-10-25T19:20:15.138Z,5.15
2022-10-25T19:25:06.057Z,3.97
2022-10-25T19:29:57.784Z,3.63
2022-10-25T19:39:42.580Z,4.22
2022-10-25T19:44:33.141Z,4.60
2022-10-25T19:49:23.568Z,5.18
2022-10-25T19:54:17.032Z,3.63
2022-10-25T19:59:08.047Z,3.95
2022-10-25T20:04:00.751Z,3.70
2022-10-25T20:08:51.782Z,5.15
2022-10-25T20:13:45.454Z,7.07
2022-10-25T20:18:38.509Z,10.38
2022-10-25T20:23:29.318Z,3.92
2022-10-25T20:28:20.553Z,3.85
2022-10-25T20:33:14.432Z,4.30
2022-10-25T20:38:05.163Z,4.90
2022-10-25T20:42:55.872Z,4.47
2022-10-25T20:47:50.933Z,6.50
2022-10-25T20:52:58.520Z,4.70
2022-10-25T20:57:55.694Z,4.05
2022-10-25T21:02:46.368Z,6.28
2022-10-25T21:07:36.864Z,2.55
2022-10-25T21:12:29.966Z,3.30
2022-10-25T21:17:20.815Z,3.78
2022-10-25T21:22:11.682Z,4.68
2022-10-25T21:27:02.407Z,3.55
2022-10-25T21:31:55.825Z,4.10
2022-10-25T21:36:45.679Z,5.38
2022-10-25T21:41:35.949Z,4.60
2022-10-25T21:46:27.038Z,4.50
2022-10-25T21:51:20.641Z,4.90
2022-10-25T21:56:13.472Z,4.78
2022-10-25T22:01:04.393Z,5.32
2022-10-25T22:05:54.500Z,5.85
2022-10-25T22:10:47.693Z,6.18
2022-10-25T22:15:38.274Z,4.00
2022-10-25T22:20:28.849Z,4.70
2022-10-25T22:25:28.661Z,4.68
2022-10-25T22:30:22.002Z,4.30
2022-10-25T22:35:12.681Z,4.77
2022-10-25T22:40:03.624Z,5.90
2022-10-25T22:44:54.059Z,4.63
2022-10-25T22:49:48.082Z,5.65
2022-10-25T22:54:38.727Z,6.03
2022-10-25T22:59:31.636Z,5.15
2022-10-25T23:04:23.032Z,5.13
2022-10-25T23:09:16.226Z,5.53
2022-10-25T23:14:13.275Z,8.15
2022-10-25T23:19:08.665Z,5.53
2022-10-25T23:24:01.432Z,7.22
2022-10-25T23:28:54.814Z,5.90
2022-10-25T23:33:47.147Z,4.47
2022-10-25T23:38:38.188Z,4.95
2022-10-25T23:43:28.070Z,6.15
2022-10-25T23:48:20.429Z,6.18
2022-10-25T23:53:10.125Z,5.00
2022-10-25T23:58:00.805Z,6.80
